sensor_id;sensor_type;location;lat;lon;timestamp;P1;durP1;ratioP1;P2;durP2;ratioP2
2320;SDS011;15376;48.540;9.268;2022-07-29T00:00:38;13.80;;;12.30;;
2320;SDS011;15376;48.540;9.268;2022-07-29T00:03:04;14.40;;;13.20;;
2320;SDS011;15376;48.540;9.268;2022-07-29T00:05:29;13.97;;;12.77;;
2320;SDS011;15376;48.540;9.268;2022-07-29T00:07:55;14.83;;;13.43;;
2320;SDS011;15376;48.540;9.268;2022-07-29T00:10:20;14.77;;;13.47;;
2320;SDS011;15376;48.540;9.268;2022-07-29T00:12:46;11.03;;;10.13;;
2320;SDS011;15376;48.540;9.268;2022-07-29T00:15:11;11.27;;;10.40;;
2320;SDS011;15376;48.540;9.268;2022-07-29T00:17:37;8.70;;;7.90;;
2320;SDS011;15376;48.540;9.268;2022-07-29T00:20:02;7.90;;;7.20;;
2320;SDS011;15376;48.540;9.268;2022-07-29T00:22:29;7.67;;;6.63;;
2320;SDS011;15376;48.540;9.268;2022-07-29T00:24:54;7.70;;;7.20;;
2320;SDS011;15376;48.540;9.268;2022-07-29T00:27:20;6.90;;;6.50;;
2320;SDS011;15376;48.540;9.268;2022-07-29T00:29:45;6.53;;;6.03;;
2320;SDS011;15376;48.540;9.268;2022-07-29T00:32:10;6.97;;;6.47;;
2320;SDS011;15376;48.540;9.268;2022-07-29T00:34:36;6.40;;;5.90;;
2320;SDS011;15376;48.540;9.268;2022-07-29T00:37:20;6.57;;;6.00;;
2320;SDS011;15376;48.540;9.268;2022-07-29T00:39:45;5.47;;;5.10;;
2320;SDS011;15376;48.540;9.268;2022-07-29T00:42:11;5.40;;;5.00;;
2320;SDS011;15376;48.540;9.268;2022-07-29T00:44:37;5.60;;;5.20;;
2320;SDS011;15376;48.540;9.268;2022-07-29T00:47:03;5.40;;;5.00;;
2320;SDS011;15376;48.540;9.268;2022-07-29T00:49:29;6.90;;;6.20;;
2320;SDS011;15376;48.540;9.268;2022-07-29T00:51:54;6.50;;;6.00;;
2320;SDS011;15376;48.540;9.268;2022-07-29T00:54:19;5.87;;;5.47;;
2320;SDS011;15376;48.540;9.268;2022-07-29T00:56:45;5.57;;;5.17;;
2320;SDS011;15376;48.540;9.268;2022-07-29T00:59:10;6.23;;;5.73;;
2320;SDS011;15376;48.540;9.268;2022-07-29T01:01:36;5.73;;;5.30;;
2320;SDS011;15376;48.540;9.268;2022-07-29T01:04:01;5.40;;;5.00;;
2320;SDS011;15376;48.540;9.268;2022-07-29T01:06:27;6.73;;;6.13;;
2320;SDS011;15376;48.540;9.268;2022-07-29T01:08:52;6.67;;;6.07;;
2320;SDS011;15376;48.540;9.268;2022-07-29T01:11:18;6.10;;;5.70;;
2320;SDS011;15376;48.540;9.268;2022-07-29T01:13:44;7.07;;;6.47;;
2320;SDS011;15376;48.540;9.268;2022-07-29T01:16:13;7.03;;;6.63;;
2320;SDS011;15376;48.540;9.268;2022-07-29T01:19:07;6.17;;;5.77;;
2320;SDS011;15376;48.540;9.268;2022-07-29T01:21:57;7.70;;;7.00;;
2320;SDS011;15376;48.540;9.268;2022-07-29T01:24:30;7.80;;;7.13;;
2320;SDS011;15376;48.540;9.268;2022-07-29T01:30:08;6.63;;;6.20;;
2320;SDS011;15376;48.540;9.268;2022-07-29T01:32:35;7.23;;;6.73;;
2320;SDS011;15376;48.540;9.268;2022-07-29T01:35:03;6.90;;;6.37;;
2320;SDS011;15376;48.540;9.268;2022-07-29T01:37:39;8.07;;;7.20;;
2320;SDS011;15376;48.540;9.268;2022-07-29T01:40:58;9.73;;;7.53;;
2320;SDS011;15376;48.540;9.268;2022-07-29T01:43:16;6.90;;;6.40;;
2320;SDS011;15376;48.540;9.268;2022-07-29T01:45:46;7.40;;;6.80;;
2320;SDS011;15376;48.540;9.268;2022-07-29T01:51:33;7.10;;;6.60;;
2320;SDS011;15376;48.540;9.268;2022-07-29T01:56:39;8.03;;;7.43;;
2320;SDS011;15376;48.540;9.268;2022-07-29T01:59:08;9.00;;;8.07;;
2320;SDS011;15376;48.540;9.268;2022-07-29T02:01:34;9.87;;;9.00;;
2320;SDS011;15376;48.540;9.268;2022-07-29T02:04:02;7.80;;;7.20;;
2320;SDS011;15376;48.540;9.268;2022-07-29T02:06:30;9.07;;;8.37;;
2320;SDS011;15376;48.540;9.268;2022-07-29T02:08:58;11.13;;;8.47;;
2320;SDS011;15376;48.540;9.268;2022-07-29T02:11:24;9.30;;;8.60;;
2320;SDS011;15376;48.540;9.268;2022-07-29T02:13:49;9.47;;;8.60;;
2320;SDS011;15376;48.540;9.268;2022-07-29T02:16:19;7.93;;;7.30;;
2320;SDS011;15376;48.540;9.268;2022-07-29T02:18:46;7.93;;;7.30;;
2320;SDS011;15376;48.540;9.268;2022-07-29T02:21:15;8.90;;;8.10;;
2320;SDS011;15376;48.540;9.268;2022-07-29T02:23:46;7.37;;;6.87;;
2320;SDS011;15376;48.540;9.268;2022-07-29T02:26:13;9.57;;;8.90;;
2320;SDS011;15376;48.540;9.268;2022-07-29T02:28:40;8.20;;;7.50;;
2320;SDS011;15376;48.540;9.268;2022-07-29T02:31:06;9.30;;;8.50;;
2320;SDS011;15376;48.540;9.268;2022-07-29T02:33:32;9.20;;;8.40;;
2320;SDS011;15376;48.540;9.268;2022-07-29T02:35:58;8.23;;;7.40;;
2320;SDS011;15376;48.540;9.268;2022-07-29T02:38:26;8.40;;;7.70;;
2320;SDS011;15376;48.540;9.268;2022-07-29T02:41:12;8.53;;;7.93;;
2320;SDS011;15376;48.540;9.268;2022-07-29T02:43:40;9.40;;;8.63;;
2320;SDS011;15376;48.540;9.268;2022-07-29T02:46:11;9.17;;;8.40;;
2320;SDS011;15376;48.540;9.268;2022-07-29T02:48:45;8.87;;;8.17;;
2320;SDS011;15376;48.540;9.268;2022-07-29T02:51:28;9.07;;;8.27;;
2320;SDS011;15376;48.540;9.268;2022-07-29T02:54:03;11.07;;;9.03;;
2320;SDS011;15376;48.540;9.268;2022-07-29T02:56:32;8.33;;;7.50;;
2320;SDS011;15376;48.540;9.268;2022-07-29T02:59:03;12.97;;;9.10;;
2320;SDS011;15376;48.540;9.268;2022-07-29T03:01:32;8.97;;;8.37;;
2320;SDS011;15376;48.540;9.268;2022-07-29T03:04:00;9.73;;;8.97;;
2320;SDS011;15376;48.540;9.268;2022-07-29T03:06:28;8.63;;;7.93;;
2320;SDS011;15376;48.540;9.268;2022-07-29T03:08:55;7.63;;;7.03;;
2320;SDS011;15376;48.540;9.268;2022-07-29T03:11:22;9.70;;;8.97;;
2320;SDS011;15376;48.540;9.268;2022-07-29T03:13:48;9.03;;;8.23;;
2320;SDS011;15376;48.540;9.268;2022-07-29T03:16:13;7.87;;;7.17;;
2320;SDS011;15376;48.540;9.268;2022-07-29T03:18:40;9.97;;;9.17;;
2320;SDS011;15376;48.540;9.268;2022-07-29T03:21:06;10.63;;;9.77;;
2320;SDS011;15376;48.540;9.268;2022-07-29T03:23:31;8.90;;;8.30;;
2320;SDS011;15376;48.540;9.268;2022-07-29T03:25:56;11.00;;;9.90;;
2320;SDS011;15376;48.540;9.268;2022-07-29T03:28:22;9.40;;;8.60;;
2320;SDS011;15376;48.540;9.268;2022-07-29T03:30:48;9.23;;;8.33;;
2320;SDS011;15376;48.540;9.268;2022-07-29T03:33:14;8.63;;;7.93;;
2320;SDS011;15376;48.540;9.268;2022-07-29T03:35:40;11.67;;;10.33;;
2320;SDS011;15376;48.540;9.268;2022-07-29T03:38:05;10.93;;;9.90;;
2320;SDS011;15376;48.540;9.268;2022-07-29T03:40:32;10.27;;;9.47;;
2320;SDS011;15376;48.540;9.268;2022-07-29T03:43:00;11.33;;;10.33;;
2320;SDS011;15376;48.540;9.268;2022-07-29T03:45:28;11.20;;;10.23;;
2320;SDS011;15376;48.540;9.268;2022-07-29T03:47:57;9.90;;;9.10;;
2320;SDS011;15376;48.540;9.268;2022-07-29T03:50:26;9.93;;;9.00;;
2320;SDS011;15376;48.540;9.268;2022-07-29T03:52:53;11.90;;;10.70;;
2320;SDS011;15376;48.540;9.268;2022-07-29T03:55:19;12.97;;;11.53;;
2320;SDS011;15376;48.540;9.268;2022-07-29T03:57:44;16.73;;;11.50;;
2320;SDS011;15376;48.540;9.268;2022-07-29T04:00:12;12.27;;;11.37;;
2320;SDS011;15376;48.540;9.268;2022-07-29T04:02:38;12.03;;;11.03;;
2320;SDS011;15376;48.540;9.268;2022-07-29T04:05:04;13.63;;;12.57;;
2320;SDS011;15376;48.540;9.268;2022-07-29T04:07:36;11.30;;;10.40;;
2320;SDS011;15376;48.540;9.268;2022-07-29T04:10:01;11.03;;;10.03;;
2320;SDS011;15376;48.540;9.268;2022-07-29T04:12:27;14.93;;;11.73;;
2320;SDS011;15376;48.540;9.268;2022-07-29T04:14:52;11.93;;;11.00;;
2320;SDS011;15376;48.540;9.268;2022-07-29T04:17:17;11.87;;;10.80;;
2320;SDS011;15376;48.540;9.268;2022-07-29T04:19:43;12.73;;;11.50;;
2320;SDS011;15376;48.540;9.268;2022-07-29T04:22:08;11.13;;;10.20;;
2320;SDS011;15376;48.540;9.268;2022-07-29T04:24:34;8.90;;;8.27;;
2320;SDS011;15376;48.540;9.268;2022-07-29T04:26:59;11.30;;;10.13;;
2320;SDS011;15376;48.540;9.268;2022-07-29T04:29:24;11.20;;;10.20;;
2320;SDS011;15376;48.540;9.268;2022-07-29T04:31:50;10.87;;;9.87;;
2320;SDS011;15376;48.540;9.268;2022-07-29T04:34:15;10.40;;;9.60;;
2320;SDS011;15376;48.540;9.268;2022-07-29T04:36:41;9.73;;;8.83;;
2320;SDS011;15376;48.540;9.268;2022-07-29T04:39:06;10.60;;;9.70;;
2320;SDS011;15376;48.540;9.268;2022-07-29T04:41:31;10.67;;;9.77;;
2320;SDS011;15376;48.540;9.268;2022-07-29T04:43:57;10.50;;;9.57;;
2320;SDS011;15376;48.540;9.268;2022-07-29T04:46:22;10.23;;;9.40;;
2320;SDS011;15376;48.540;9.268;2022-07-29T04:48:48;13.37;;;9.40;;
2320;SDS011;15376;48.540;9.268;2022-07-29T04:51:14;10.60;;;9.63;;
2320;SDS011;15376;48.540;9.268;2022-07-29T04:53:39;11.33;;;10.27;;
2320;SDS011;15376;48.540;9.268;2022-07-29T04:56:05;11.20;;;10.13;;
2320;SDS011;15376;48.540;9.268;2022-07-29T04:58:30;10.17;;;9.37;;
2320;SDS011;15376;48.540;9.268;2022-07-29T05:00:56;10.47;;;9.57;;
2320;SDS011;15376;48.540;9.268;2022-07-29T05:03:21;9.97;;;9.17;;
2320;SDS011;15376;48.540;9.268;2022-07-29T05:05:47;10.30;;;9.40;;
2320;SDS011;15376;48.540;9.268;2022-07-29T05:08:12;8.93;;;8.23;;
2320;SDS011;15376;48.540;9.268;2022-07-29T05:10:38;9.70;;;8.90;;
2320;SDS011;15376;48.540;9.268;2022-07-29T05:13:04;10.33;;;9.53;;
2320;SDS011;15376;48.540;9.268;2022-07-29T05:15:31;10.00;;;9.30;;
2320;SDS011;15376;48.540;9.268;2022-07-29T05:17:57;8.47;;;7.67;;
2320;SDS011;15376;48.540;9.268;2022-07-29T05:20:22;9.10;;;8.00;;
2320;SDS011;15376;48.540;9.268;2022-07-29T05:22:53;10.53;;;9.67;;
2320;SDS011;15376;48.540;9.268;2022-07-29T05:25:18;9.00;;;8.30;;
2320;SDS011;15376;48.540;9.268;2022-07-29T05:27:44;8.03;;;7.33;;
2320;SDS011;15376;48.540;9.268;2022-07-29T05:30:09;9.00;;;8.30;;
2320;SDS011;15376;48.540;9.268;2022-07-29T05:32:35;8.80;;;8.07;;
2320;SDS011;15376;48.540;9.268;2022-07-29T05:35:00;8.50;;;7.70;;
2320;SDS011;15376;48.540;9.268;2022-07-29T05:37:26;9.63;;;8.73;;
2320;SDS011;15376;48.540;9.268;2022-07-29T05:39:51;10.27;;;9.33;;
2320;SDS011;15376;48.540;9.268;2022-07-29T05:42:17;8.40;;;7.80;;
2320;SDS011;15376;48.540;9.268;2022-07-29T05:44:42;8.43;;;7.83;;
2320;SDS011;15376;48.540;9.268;2022-07-29T05:47:07;10.50;;;9.70;;
2320;SDS011;15376;48.540;9.268;2022-07-29T05:49:33;10.83;;;9.83;;
2320;SDS011;15376;48.540;9.268;2022-07-29T05:51:58;7.70;;;7.10;;
2320;SDS011;15376;48.540;9.268;2022-07-29T05:54:24;9.17;;;8.37;;
2320;SDS011;15376;48.540;9.268;2022-07-29T05:56:50;7.47;;;6.87;;
2320;SDS011;15376;48.540;9.268;2022-07-29T05:59:16;6.63;;;6.07;;
2320;SDS011;15376;48.540;9.268;2022-07-29T06:01:41;7.13;;;6.47;;
2320;SDS011;15376;48.540;9.268;2022-07-29T06:04:06;7.43;;;6.83;;
2320;SDS011;15376;48.540;9.268;2022-07-29T06:06:32;7.33;;;6.83;;
2320;SDS011;15376;48.540;9.268;2022-07-29T06:08:59;6.37;;;5.70;;
2320;SDS011;15376;48.540;9.268;2022-07-29T06:11:24;7.13;;;6.43;;
2320;SDS011;15376;48.540;9.268;2022-07-29T06:13:50;8.53;;;7.83;;
2320;SDS011;15376;48.540;9.268;2022-07-29T06:16:15;9.03;;;8.07;;
2320;SDS011;15376;48.540;9.268;2022-07-29T06:18:41;13.30;;;11.90;;
2320;SDS011;15376;48.540;9.268;2022-07-29T06:21:09;7.97;;;7.17;;
2320;SDS011;15376;48.540;9.268;2022-07-29T06:23:35;9.20;;;8.40;;
2320;SDS011;15376;48.540;9.268;2022-07-29T06:26:02;10.77;;;8.77;;
2320;SDS011;15376;48.540;9.268;2022-07-29T06:28:27;7.47;;;6.77;;
2320;SDS011;15376;48.540;9.268;2022-07-29T06:30:53;8.90;;;8.00;;
2320;SDS011;15376;48.540;9.268;2022-07-29T06:33:18;8.30;;;7.00;;
2320;SDS011;15376;48.540;9.268;2022-07-29T06:35:44;8.23;;;7.60;;
2320;SDS011;15376;48.540;9.268;2022-07-29T06:38:10;7.27;;;6.77;;
2320;SDS011;15376;48.540;9.268;2022-07-29T06:40:36;7.50;;;6.80;;
2320;SDS011;15376;48.540;9.268;2022-07-29T06:43:20;7.10;;;6.50;;
2320;SDS011;15376;48.540;9.268;2022-07-29T06:45:45;5.97;;;5.53;;
2320;SDS011;15376;48.540;9.268;2022-07-29T06:48:11;6.77;;;6.23;;
2320;SDS011;15376;48.540;9.268;2022-07-29T06:50:36;7.53;;;7.03;;
2320;SDS011;15376;48.540;9.268;2022-07-29T06:53:02;7.70;;;6.93;;
2320;SDS011;15376;48.540;9.268;2022-07-29T06:55:28;9.07;;;7.23;;
2320;SDS011;15376;48.540;9.268;2022-07-29T06:57:54;6.90;;;6.40;;
2320;SDS011;15376;48.540;9.268;2022-07-29T07:00:19;6.90;;;6.30;;
2320;SDS011;15376;48.540;9.268;2022-07-29T07:02:45;7.10;;;6.43;;
2320;SDS011;15376;48.540;9.268;2022-07-29T07:05:10;6.20;;;5.70;;
2320;SDS011;15376;48.540;9.268;2022-07-29T07:07:35;6.40;;;5.90;;
2320;SDS011;15376;48.540;9.268;2022-07-29T07:10:01;6.40;;;5.90;;
2320;SDS011;15376;48.540;9.268;2022-07-29T07:12:26;5.60;;;5.20;;
2320;SDS011;15376;48.540;9.268;2022-07-29T07:14:52;6.27;;;5.67;;
2320;SDS011;15376;48.540;9.268;2022-07-29T07:17:17;6.17;;;5.10;;
2320;SDS011;15376;48.540;9.268;2022-07-29T07:19:42;15.53;;;5.57;;
2320;SDS011;15376;48.540;9.268;2022-07-29T07:22:08;5.43;;;4.60;;
2320;SDS011;15376;48.540;9.268;2022-07-29T07:24:33;4.70;;;4.40;;
2320;SDS011;15376;48.540;9.268;2022-07-29T07:26:59;6.47;;;5.47;;
2320;SDS011;15376;48.540;9.268;2022-07-29T07:29:24;5.77;;;4.43;;
2320;SDS011;15376;48.540;9.268;2022-07-29T07:31:49;5.27;;;4.87;;
2320;SDS011;15376;48.540;9.268;2022-07-29T07:34:15;5.40;;;4.90;;
2320;SDS011;15376;48.540;9.268;2022-07-29T07:36:40;5.50;;;5.10;;
2320;SDS011;15376;48.540;9.268;2022-07-29T07:39:06;5.07;;;4.77;;
2320;SDS011;15376;48.540;9.268;2022-07-29T07:41:31;6.70;;;4.97;;
2320;SDS011;15376;48.540;9.268;2022-07-29T07:43:57;7.27;;;4.47;;
2320;SDS011;15376;48.540;9.268;2022-07-29T07:46:22;7.00;;;4.23;;
2320;SDS011;15376;48.540;9.268;2022-07-29T07:48:48;4.90;;;4.50;;
2320;SDS011;15376;48.540;9.268;2022-07-29T07:51:13;4.63;;;4.30;;
2320;SDS011;15376;48.540;9.268;2022-07-29T07:53:39;5.73;;;5.13;;
2320;SDS011;15376;48.540;9.268;2022-07-29T07:56:04;4.17;;;3.87;;
2320;SDS011;15376;48.540;9.268;2022-07-29T07:58:31;4.77;;;4.37;;
2320;SDS011;15376;48.540;9.268;2022-07-29T08:00:57;6.00;;;4.40;;
2320;SDS011;15376;48.540;9.268;2022-07-29T08:03:22;4.90;;;4.50;;
2320;SDS011;15376;48.540;9.268;2022-07-29T08:05:47;4.90;;;4.50;;
2320;SDS011;15376;48.540;9.268;2022-07-29T08:08:15;4.80;;;4.40;;
2320;SDS011;15376;48.540;9.268;2022-07-29T08:10:40;5.50;;;5.00;;
2320;SDS011;15376;48.540;9.268;2022-07-29T08:13:18;5.37;;;4.80;;
2320;SDS011;15376;48.540;9.268;2022-07-29T08:15:45;4.97;;;4.30;;
2320;SDS011;15376;48.540;9.268;2022-07-29T08:18:13;5.33;;;4.83;;
2320;SDS011;15376;48.540;9.268;2022-07-29T08:20:39;7.83;;;5.20;;
2320;SDS011;15376;48.540;9.268;2022-07-29T08:23:05;5.90;;;5.40;;
2320;SDS011;15376;48.540;9.268;2022-07-29T08:25:34;7.43;;;5.20;;
2320;SDS011;15376;48.540;9.268;2022-07-29T08:28:00;5.00;;;4.60;;
2320;SDS011;15376;48.540;9.268;2022-07-29T08:30:26;5.20;;;4.70;;
2320;SDS011;15376;48.540;9.268;2022-07-29T08:32:51;8.70;;;5.40;;
2320;SDS011;15376;48.540;9.268;2022-07-29T08:35:18;5.90;;;5.30;;
2320;SDS011;15376;48.540;9.268;2022-07-29T08:37:44;5.60;;;4.27;;
2320;SDS011;15376;48.540;9.268;2022-07-29T08:40:10;5.73;;;5.23;;
2320;SDS011;15376;48.540;9.268;2022-07-29T08:42:36;6.03;;;5.53;;
2320;SDS011;15376;48.540;9.268;2022-07-29T08:45:02;6.30;;;5.77;;
2320;SDS011;15376;48.540;9.268;2022-07-29T08:47:28;4.93;;;4.63;;
2320;SDS011;15376;48.540;9.268;2022-07-29T08:49:53;6.40;;;5.87;;
2320;SDS011;15376;48.540;9.268;2022-07-29T08:52:18;10.87;;;5.50;;
2320;SDS011;15376;48.540;9.268;2022-07-29T08:54:45;7.60;;;5.27;;
2320;SDS011;15376;48.540;9.268;2022-07-29T08:57:14;5.63;;;5.13;;
2320;SDS011;15376;48.540;9.268;2022-07-29T08:59:42;5.90;;;5.40;;
2320;SDS011;15376;48.540;9.268;2022-07-29T09:02:12;5.77;;;5.20;;
2320;SDS011;15376;48.540;9.268;2022-07-29T09:04:44;6.23;;;5.33;;
2320;SDS011;15376;48.540;9.268;2022-07-29T09:07:10;6.63;;;5.47;;
2320;SDS011;15376;48.540;9.268;2022-07-29T09:09:39;6.40;;;5.90;;
2320;SDS011;15376;48.540;9.268;2022-07-29T09:12:05;5.20;;;4.83;;
2320;SDS011;15376;48.540;9.268;2022-07-29T09:14:33;6.50;;;6.00;;
2320;SDS011;15376;48.540;9.268;2022-07-29T09:16:59;5.50;;;5.03;;
2320;SDS011;15376;48.540;9.268;2022-07-29T09:19:26;5.83;;;5.33;;
2320;SDS011;15376;48.540;9.268;2022-07-29T09:21:53;8.53;;;5.37;;
2320;SDS011;15376;48.540;9.268;2022-07-29T09:24:22;6.43;;;5.83;;
2320;SDS011;15376;48.540;9.268;2022-07-29T09:26:48;7.43;;;5.30;;
2320;SDS011;15376;48.540;9.268;2022-07-29T09:29:14;6.10;;;5.40;;
2320;SDS011;15376;48.540;9.268;2022-07-29T09:31:48;6.03;;;5.30;;
2320;SDS011;15376;48.540;9.268;2022-07-29T09:34:23;5.13;;;4.73;;
2320;SDS011;15376;48.540;9.268;2022-07-29T09:36:50;6.00;;;5.50;;
2320;SDS011;15376;48.540;9.268;2022-07-29T09:39:26;7.20;;;5.60;;
2320;SDS011;15376;48.540;9.268;2022-07-29T09:42:11;6.07;;;5.53;;
2320;SDS011;15376;48.540;9.268;2022-07-29T09:44:41;6.33;;;5.43;;
2320;SDS011;15376;48.540;9.268;2022-07-29T09:47:09;5.60;;;5.20;;
2320;SDS011;15376;48.540;9.268;2022-07-29T09:49:35;6.30;;;5.20;;
2320;SDS011;15376;48.540;9.268;2022-07-29T09:52:14;5.87;;;5.37;;
2320;SDS011;15376;48.540;9.268;2022-07-29T09:54:40;8.57;;;5.30;;
2320;SDS011;15376;48.540;9.268;2022-07-29T09:57:09;5.93;;;5.50;;
2320;SDS011;15376;48.540;9.268;2022-07-29T10:02:29;7.33;;;4.90;;
2320;SDS011;15376;48.540;9.268;2022-07-29T10:04:55;5.20;;;4.80;;
2320;SDS011;15376;48.540;9.268;2022-07-29T10:07:21;5.17;;;4.77;;
2320;SDS011;15376;48.540;9.268;2022-07-29T10:10:05;8.97;;;4.97;;
2320;SDS011;15376;48.540;9.268;2022-07-29T10:12:30;6.13;;;5.20;;
2320;SDS011;15376;48.540;9.268;2022-07-29T10:14:55;5.90;;;5.30;;
2320;SDS011;15376;48.540;9.268;2022-07-29T10:17:21;4.90;;;4.50;;
2320;SDS011;15376;48.540;9.268;2022-07-29T10:19:47;5.03;;;4.63;;
2320;SDS011;15376;48.540;9.268;2022-07-29T10:22:13;8.13;;;5.63;;
2320;SDS011;15376;48.540;9.268;2022-07-29T10:24:39;5.17;;;4.70;;
2320;SDS011;15376;48.540;9.268;2022-07-29T10:27:05;5.70;;;5.20;;
2320;SDS011;15376;48.540;9.268;2022-07-29T10:29:32;6.70;;;6.07;;
2320;SDS011;15376;48.540;9.268;2022-07-29T10:34:46;4.77;;;4.47;;
2320;SDS011;15376;48.540;9.268;2022-07-29T10:40:34;5.40;;;4.90;;
2320;SDS011;15376;48.540;9.268;2022-07-29T10:43:30;6.23;;;5.07;;
2320;SDS011;15376;48.540;9.268;2022-07-29T10:46:01;5.50;;;5.00;;
2320;SDS011;15376;48.540;9.268;2022-07-29T10:48:28;5.27;;;4.77;;
2320;SDS011;15376;48.540;9.268;2022-07-29T10:53:21;5.83;;;5.23;;
2320;SDS011;15376;48.540;9.268;2022-07-29T10:55:49;5.30;;;4.90;;
2320;SDS011;15376;48.540;9.268;2022-07-29T10:58:17;5.60;;;5.07;;
2320;SDS011;15376;48.540;9.268;2022-07-29T11:00:51;5.43;;;4.80;;
2320;SDS011;15376;48.540;9.268;2022-07-29T11:06:12;6.00;;;5.40;;
2320;SDS011;15376;48.540;9.268;2022-07-29T11:08:38;5.60;;;5.30;;
2320;SDS011;15376;48.540;9.268;2022-07-29T11:11:37;5.80;;;5.40;;
2320;SDS011;15376;48.540;9.268;2022-07-29T11:13:56;5.50;;;5.00;;
2320;SDS011;15376;48.540;9.268;2022-07-29T11:16:21;5.60;;;5.13;;
2320;SDS011;15376;48.540;9.268;2022-07-29T11:21:52;6.03;;;5.53;;
2320;SDS011;15376;48.540;9.268;2022-07-29T11:24:21;6.70;;;5.30;;
2320;SDS011;15376;48.540;9.268;2022-07-29T11:29:38;7.60;;;5.53;;
2320;SDS011;15376;48.540;9.268;2022-07-29T11:32:12;5.60;;;5.20;;
2320;SDS011;15376;48.540;9.268;2022-07-29T11:34:42;5.30;;;4.90;;
2320;SDS011;15376;48.540;9.268;2022-07-29T11:39:38;6.70;;;5.20;;
2320;SDS011;15376;48.540;9.268;2022-07-29T11:47:24;6.17;;;5.13;;
2320;SDS011;15376;48.540;9.268;2022-07-29T11:49:50;5.90;;;5.40;;
2320;SDS011;15376;48.540;9.268;2022-07-29T11:52:17;6.87;;;5.90;;
2320;SDS011;15376;48.540;9.268;2022-07-29T11:54:44;6.33;;;5.67;;
2320;SDS011;15376;48.540;9.268;2022-07-29T11:57:12;6.03;;;5.53;;
2320;SDS011;15376;48.540;9.268;2022-07-29T11:59:41;7.10;;;5.90;;
2320;SDS011;15376;48.540;9.268;2022-07-29T12:02:08;7.17;;;5.00;;
2320;SDS011;15376;48.540;9.268;2022-07-29T12:04:56;5.70;;;4.60;;
2320;SDS011;15376;48.540;9.268;2022-07-29T12:07:31;5.03;;;3.93;;
2320;SDS011;15376;48.540;9.268;2022-07-29T12:09:58;3.97;;;3.67;;
2320;SDS011;15376;48.540;9.268;2022-07-29T12:12:23;4.30;;;3.90;;
2320;SDS011;15376;48.540;9.268;2022-07-29T12:14:49;4.13;;;3.70;;
2320;SDS011;15376;48.540;9.268;2022-07-29T12:17:24;3.83;;;3.60;;
2320;SDS011;15376;48.540;9.268;2022-07-29T12:19:55;4.67;;;4.27;;
2320;SDS011;15376;48.540;9.268;2022-07-29T12:22:40;3.70;;;3.50;;
2320;SDS011;15376;48.540;9.268;2022-07-29T12:25:08;3.93;;;3.63;;
2320;SDS011;15376;48.540;9.268;2022-07-29T12:27:39;4.30;;;3.93;;
2320;SDS011;15376;48.540;9.268;2022-07-29T12:30:05;5.60;;;3.70;;
2320;SDS011;15376;48.540;9.268;2022-07-29T12:35:01;6.90;;;3.73;;
2320;SDS011;15376;48.540;9.268;2022-07-29T12:37:32;4.10;;;3.70;;
2320;SDS011;15376;48.540;9.268;2022-07-29T12:39:59;4.27;;;3.87;;
2320;SDS011;15376;48.540;9.268;2022-07-29T12:42:25;3.97;;;3.70;;
2320;SDS011;15376;48.540;9.268;2022-07-29T12:44:50;5.03;;;4.47;;
2320;SDS011;15376;48.540;9.268;2022-07-29T12:47:16;7.13;;;4.13;;
2320;SDS011;15376;48.540;9.268;2022-07-29T12:49:43;4.37;;;3.97;;
2320;SDS011;15376;48.540;9.268;2022-07-29T12:54:59;4.43;;;4.13;;
2320;SDS011;15376;48.540;9.268;2022-07-29T12:57:26;4.50;;;4.07;;
2320;SDS011;15376;48.540;9.268;2022-07-29T13:00:08;4.63;;;4.27;;
2320;SDS011;15376;48.540;9.268;2022-07-29T13:02:36;4.40;;;4.10;;
2320;SDS011;15376;48.540;9.268;2022-07-29T13:05:03;5.00;;;4.50;;
2320;SDS011;15376;48.540;9.268;2022-07-29T13:07:30;4.83;;;4.43;;
2320;SDS011;15376;48.540;9.268;2022-07-29T13:12:36;4.73;;;4.30;;
2320;SDS011;15376;48.540;9.268;2022-07-29T13:15:11;4.30;;;3.90;;
2320;SDS011;15376;48.540;9.268;2022-07-29T13:17:44;4.20;;;3.97;;
2320;SDS011;15376;48.540;9.268;2022-07-29T13:20:10;4.13;;;3.80;;
2320;SDS011;15376;48.540;9.268;2022-07-29T13:22:40;5.30;;;4.90;;
2320;SDS011;15376;48.540;9.268;2022-07-29T13:25:07;25.93;;;5.53;;
2320;SDS011;15376;48.540;9.268;2022-07-29T13:27:34;4.73;;;4.40;;
2320;SDS011;15376;48.540;9.268;2022-07-29T13:30:06;6.03;;;4.90;;
2320;SDS011;15376;48.540;9.268;2022-07-29T13:32:33;5.20;;;4.70;;
2320;SDS011;15376;48.540;9.268;2022-07-29T13:35:00;5.23;;;4.63;;
2320;SDS011;15376;48.540;9.268;2022-07-29T13:37:27;5.30;;;4.70;;
2320;SDS011;15376;48.540;9.268;2022-07-29T13:39:54;6.10;;;5.60;;
2320;SDS011;15376;48.540;9.268;2022-07-29T13:42:21;5.27;;;4.90;;
2320;SDS011;15376;48.540;9.268;2022-07-29T13:44:47;5.10;;;4.70;;
2320;SDS011;15376;48.540;9.268;2022-07-29T13:47:15;11.13;;;8.00;;
2320;SDS011;15376;48.540;9.268;2022-07-29T13:49:41;10.50;;;8.70;;
2320;SDS011;15376;48.540;9.268;2022-07-29T13:52:06;9.27;;;8.13;;
2320;SDS011;15376;48.540;9.268;2022-07-29T13:54:32;9.00;;;8.10;;
2320;SDS011;15376;48.540;9.268;2022-07-29T13:56:57;11.47;;;10.03;;
2320;SDS011;15376;48.540;9.268;2022-07-29T13:59:23;8.40;;;7.80;;
2320;SDS011;15376;48.540;9.268;2022-07-29T14:01:48;9.17;;;7.80;;
2320;SDS011;15376;48.540;9.268;2022-07-29T14:04:14;10.60;;;9.23;;
2320;SDS011;15376;48.540;9.268;2022-07-29T14:06:40;9.70;;;8.77;;
2320;SDS011;15376;48.540;9.268;2022-07-29T14:09:05;10.80;;;9.80;;
2320;SDS011;15376;48.540;9.268;2022-07-29T14:11:31;8.70;;;7.90;;
2320;SDS011;15376;48.540;9.268;2022-07-29T14:13:57;11.03;;;10.00;;
2320;SDS011;15376;48.540;9.268;2022-07-29T14:16:22;11.13;;;10.13;;
2320;SDS011;15376;48.540;9.268;2022-07-29T14:18:48;14.37;;;11.17;;
2320;SDS011;15376;48.540;9.268;2022-07-29T14:21:13;9.60;;;8.83;;
2320;SDS011;15376;48.540;9.268;2022-07-29T14:23:38;11.70;;;10.70;;
2320;SDS011;15376;48.540;9.268;2022-07-29T14:26:04;11.20;;;10.30;;
2320;SDS011;15376;48.540;9.268;2022-07-29T14:28:29;10.67;;;9.87;;
2320;SDS011;15376;48.540;9.268;2022-07-29T14:30:55;9.80;;;8.90;;
2320;SDS011;15376;48.540;9.268;2022-07-29T14:33:20;7.93;;;7.23;;
2320;SDS011;15376;48.540;9.268;2022-07-29T14:35:46;10.20;;;7.30;;
2320;SDS011;15376;48.540;9.268;2022-07-29T14:38:11;7.73;;;7.20;;
2320;SDS011;15376;48.540;9.268;2022-07-29T14:40:36;8.73;;;7.80;;
2320;SDS011;15376;48.540;9.268;2022-07-29T14:43:02;6.80;;;6.20;;
2320;SDS011;15376;48.540;9.268;2022-07-29T14:45:28;7.87;;;7.00;;
2320;SDS011;15376;48.540;9.268;2022-07-29T14:47:53;8.10;;;7.07;;
2320;SDS011;15376;48.540;9.268;2022-07-29T14:50:19;7.80;;;7.00;;
2320;SDS011;15376;48.540;9.268;2022-07-29T14:52:44;8.43;;;7.60;;
2320;SDS011;15376;48.540;9.268;2022-07-29T14:55:10;7.47;;;6.77;;
2320;SDS011;15376;48.540;9.268;2022-07-29T14:57:36;20.77;;;9.00;;
2320;SDS011;15376;48.540;9.268;2022-07-29T15:00:02;8.27;;;7.70;;
2320;SDS011;15376;48.540;9.268;2022-07-29T15:02:32;7.53;;;6.80;;
2320;SDS011;15376;48.540;9.268;2022-07-29T15:04:58;7.00;;;6.40;;
2320;SDS011;15376;48.540;9.268;2022-07-29T15:07:23;8.00;;;7.50;;
2320;SDS011;15376;48.540;9.268;2022-07-29T15:09:48;8.83;;;8.13;;
2320;SDS011;15376;48.540;9.268;2022-07-29T15:12:14;7.07;;;6.57;;
2320;SDS011;15376;48.540;9.268;2022-07-29T15:14:40;10.30;;;7.23;;
2320;SDS011;15376;48.540;9.268;2022-07-29T15:17:05;8.50;;;7.80;;
2320;SDS011;15376;48.540;9.268;2022-07-29T15:19:30;9.67;;;8.43;;
2320;SDS011;15376;48.540;9.268;2022-07-29T15:21:56;8.77;;;8.10;;
2320;SDS011;15376;48.540;9.268;2022-07-29T15:24:21;9.70;;;8.87;;
2320;SDS011;15376;48.540;9.268;2022-07-29T15:26:46;8.30;;;7.60;;
2320;SDS011;15376;48.540;9.268;2022-07-29T15:29:12;7.40;;;6.90;;
2320;SDS011;15376;48.540;9.268;2022-07-29T15:31:38;7.37;;;6.77;;
2320;SDS011;15376;48.540;9.268;2022-07-29T15:34:03;9.50;;;7.30;;
2320;SDS011;15376;48.540;9.268;2022-07-29T15:36:30;8.80;;;7.97;;
2320;SDS011;15376;48.540;9.268;2022-07-29T15:38:55;12.60;;;7.33;;
2320;SDS011;15376;48.540;9.268;2022-07-29T15:41:21;7.87;;;7.27;;
2320;SDS011;15376;48.540;9.268;2022-07-29T15:43:47;7.57;;;7.00;;